プライベートジェット機長が見た「超」大富豪の投資の世界

世界を動かす「超」大富豪の投資の世界とはどんな世界か?
大富豪の象徴であるプライベートジェットの機長として日本人で唯一、
世界最速で大富豪を生み出す国・中国でフライトをマネージする
Captain Kayが、日本では決して見ることができない世界へあなたをいざなう。


テーマ:
今、定期訓練のために珠海にいる。
 
このように天気がいいのでジョギングに出ようとしたところ....
{EDE91AD6-2076-4339-9059-0BA2AF2E62EA:01}
 
{786A8351-3812-4970-9ED0-53487D1707CF:01}

海沿いまで来たら突然霧が流入してきた。
 
その瞬間をとらえたので見てもらいたい。
{994B2A36-3735-4781-BBF0-2267132513B6:01}
 
{DA7BF74D-DFF9-465F-A3F0-B420C15FC73A:01}
皆さんの応援が励みになります。
ここ↓をクリックお願いします!

{144E06EB-A232-4F26-A092-44E0D8746679:01}
 
この海霧で近くのマカオ国際空港の視程が2時間ほど前に6kmあったのが1,200mまで下がった。
VMMC 180830Z 13007KT 6000 FEW012 20/17 Q1018 NOSIG
VMMC 181000Z 18006KT 1200 R16/P2000N R34/1000N BR FEW002 SCT010 18/17 Q1019 NOSIG
 

海霧とは、暖かく湿った空気が、冷たい海面に接することで生じる霧で、特に移流霧として陸上に達する濃霧のことをいう。
 
私、かつて関空で離陸を待っているときにこの海霧に関空が覆われ離陸をしてもよい最低気象条件を下回ってしまい、霧が晴れるまで離陸を見合わせたことがある。

これからこの時期、香港・マカオ・珠海付近は霧の季節になる。
 

 

最後まで読んでいただけたのなら→ここ(ブログランキング投票)と下の「いいね!」をクリック!

 

AD
いいね!した人  |  コメント(0)  |  リブログ(0)

AD

Ameba人気のブログ

Amebaトピックス

      ランキング

      • 総合
      • 新登場
      • 急上昇
      • トレンド

      ブログをはじめる

      たくさんの芸能人・有名人が
      書いているAmebaブログを
      無料で簡単にはじめることができます。

      公式トップブロガーへ応募

      多くの方にご紹介したいブログを
      執筆する方を「公式トップブロガー」
      として認定しております。

      芸能人・有名人ブログを開設

      Amebaブログでは、芸能人・有名人ブログを
      ご希望される著名人の方/事務所様を
      随時募集しております。